1859 Tropical Storm NOT_NAMED (1859284N19293)


IBTrACS version v04r00. Visit IBTrACS website for data access.
Please direct all questions to the IBTrACS Q and A forum

Storm track - Intensity - Wind Radii - Intensity Data - Source Data - All data

Summary Information

Storm ID 1859284N19293
Start Oct 10 12Z
Max Intensity 55 kt (Oct 15 06Z)
End Oct 18 00Z
ATCF IDs
Track status Best track data.

Storm track plot

Map of storm track

Intensity plots

Map of storm track

Radial wind information

No radial wind information for this storm


Position and Intensity Table

BASIN ISO_TIME_________ NATURE LAT LON MLC WIND
degrees north degrees east kts
NA 1859-10-10 12:00:00 TS 19.00 -67.30 30
NA 15:00:00 TS 19.21 -67.51 30
NA 18:00:00 TS 19.40 -67.70 30
NA 21:00:00 TS 19.55 -67.85 30
NA 1859-10-11 00:00:00 TS 19.70 -68.00 30
NA 03:00:00 TS 19.90 -68.20 30
NA 06:00:00 TS 20.10 -68.40 30
NA 09:00:00 TS 20.25 -68.54 30
NA 12:00:00 TS 20.40 -68.70 30
NA 15:00:00 TS 20.60 -68.94 30
NA 18:00:00 TS 20.80 -69.20 30
NA 21:00:00 TS 20.95 -69.40 32
NA 1859-10-12 00:00:00 TS 21.10 -69.60 35
NA 03:00:00 TS 21.30 -69.85 35
NA 06:00:00 TS 21.50 -70.10 35
NA 09:00:00 TS 21.64 -70.30 35
NA 12:00:00 TS 21.80 -70.50 35
NA 15:00:00 TS 22.04 -70.75 35
NA 18:00:00 TS 22.30 -71.00 35
NA 21:00:00 TS 22.55 -71.20 37
NA 1859-10-13 00:00:00 TS 22.80 -71.40 40
NA 03:00:00 TS 23.05 -71.65 40
NA 06:00:00 TS 23.30 -71.90 40
NA 09:00:00 TS 23.57 -72.11 40
NA 12:00:00 TS 23.80 -72.30 40
NA 15:00:00 TS 23.92 -72.50 40
NA 18:00:00 TS 24.00 -72.70 40
NA 21:00:00 TS 24.10 -72.90 42
NA 1859-10-14 00:00:00 TS 24.20 -73.10 45
NA 03:00:00 TS 24.31 -73.31 45
NA 06:00:00 TS 24.40 -73.50 45
NA 09:00:00 TS 24.43 -73.64 45
NA 12:00:00 TS 24.50 -73.80 45
NA 15:00:00 TS 24.72 -74.08 45
NA 18:00:00 TS 25.00 -74.40 45
NA 21:00:00 TS 25.26 -74.72 45
NA 1859-10-15 00:00:00 TS 25.50 -75.00 45
NA 03:00:00 TS 25.71 -75.17 50
NA 06:00:00 TS 25.90 -75.30 55
NA 09:00:00 TS 26.10 -75.45 55
NA 12:00:00 TS 26.30 -75.60 55
NA 15:00:00 TS 26.51 -75.76 55
NA 18:00:00 TS 26.70 -75.90 55
NA 21:00:00 TS 26.84 -76.00 55
NA 1859-10-16 00:00:00 TS 27.00 -76.10 55
NA 03:00:00 TS 27.24 -76.24 55
NA 06:00:00 TS 27.50 -76.40 55
NA 09:00:00 TS 27.70 -76.55 55
NA 12:00:00 TS 27.90 -76.70 55
NA 15:00:00 TS 28.15 -76.86 55
NA 18:00:00 TS 28.40 -77.00 55
NA 21:00:00 TS 28.58 -77.17 55
NA 1859-10-17 00:00:00 TS 28.80 -77.20 55
NA 03:00:00 TS 29.12 -76.96 55
NA 06:00:00 TS 29.50 -76.60 55
NA 09:00:00 TS 29.90 -76.30 55
NA 12:00:00 TS 30.30 -76.00 55
NA 15:00:00 TS 30.66 -75.70 52
NA 18:00:00 TS 31.00 -75.40 50
NA 21:00:00 TS 31.35 -75.10 45
NA 1859-10-18 00:00:00 TS 31.70 -74.80 40

Source Information

Agency Information
USA
TOKYO
CMA
HKO
NEWDELHI
REUNION
BOM
NADI
WELLINGTON
DS824
TD9636
TD9635
NEUMANN
MLC

All available IBTrACS Data

SEASON BASIN SUBBASIN ISO_TIME_________ NATURE LAT LON DIST2LAND LANDFALL IFLAG USA SSHS MLC LAT MLC LON MLC CLASS MLC WIND STORM SPEED STORM DIR
Year degrees north degrees east km km 1 degrees north degrees east kts kts degrees
1859 NA NA 1859-10-10 12:00:00 TS 19.00 -67.30 67 67 _____________O -1 19.00 -67.30 TD 30 6 316
1859 NA NA 15:00:00 TS 19.21 -67.51 91 91 _____________P -1 19.21 -67.51 TD 30 6 317
1859 NA NA 18:00:00 TS 19.40 -67.70 109 109 _____________O -1 19.40 -67.70 TD 30 5 317
1859 NA NA 21:00:00 TS 19.55 -67.85 107 107 _____________P -1 19.55 -67.85 TD 30 4 317
1859 NA NA 1859-10-11 00:00:00 TS 19.70 -68.00 118 118 _____________O -1 19.70 -68.00 TD 30 5 317
1859 NA NA 03:00:00 TS 19.90 -68.20 128 128 _____________P -1 19.90 -68.20 TD 30 6 317
1859 NA NA 06:00:00 TS 20.10 -68.40 129 129 _____________O -1 20.10 -68.40 TD 30 5 317
1859 NA NA 09:00:00 TS 20.25 -68.54 130 130 _____________P -1 20.25 -68.54 TD 30 4 317
1859 NA NA 12:00:00 TS 20.40 -68.70 138 138 _____________O -1 20.40 -68.70 TD 30 5 313
1859 NA NA 15:00:00 TS 20.60 -68.94 151 148 _____________P -1 20.60 -68.94 TD 30 6 311
1859 NA NA 18:00:00 TS 20.80 -69.20 158 152 _____________O -1 20.80 -69.20 TD 30 6 309
1859 NA NA 21:00:00 TS 20.95 -69.40 158 158 _____________P -1 20.95 -69.40 TD 32 5 309
1859 NA NA 1859-10-12 00:00:00 TS 21.10 -69.60 172 170 _____________O -1 21.10 -69.60 TS 35 5 310
1859 NA NA 03:00:00 TS 21.30 -69.85 187 182 _____________P -1 21.30 -69.85 TS 35 6 311
1859 NA NA 06:00:00 TS 21.50 -70.10 197 194 _____________O -1 21.50 -70.10 TS 35 5 309
1859 NA NA 09:00:00 TS 21.64 -70.30 203 203 _____________P -1 21.64 -70.30 TS 35 5 309
1859 NA NA 12:00:00 TS 21.80 -70.50 223 223 _____________O -1 21.80 -70.50 TS 35 6 313
1859 NA NA 15:00:00 TS 22.04 -70.75 246 239 _____________P -1 22.04 -70.75 TS 35 7 317
1859 NA NA 18:00:00 TS 22.30 -71.00 240 235 _____________O -1 22.30 -71.00 TS 35 7 321
1859 NA NA 21:00:00 TS 22.55 -71.20 235 235 _____________P -1 22.55 -71.20 TS 37 6 324
1859 NA NA 1859-10-13 00:00:00 TS 22.80 -71.40 243 243 _____________O -1 22.80 -71.40 TS 40 7 320
1859 NA NA 03:00:00 TS 23.05 -71.65 251 251 _____________P -1 23.05 -71.65 TS 40 7 317
1859 NA NA 06:00:00 TS 23.30 -71.90 260 260 _____________O -1 23.30 -71.90 TS 40 7 321
1859 NA NA 09:00:00 TS 23.57 -72.11 283 280 _____________P -1 23.57 -72.11 TS 40 6 324
1859 NA NA 12:00:00 TS 23.80 -72.30 299 297 _____________O -1 23.80 -72.30 TS 40 5 314
1859 NA NA 15:00:00 TS 23.92 -72.50 306 304 _____________P -1 23.92 -72.50 TS 40 4 299
1859 NA NA 18:00:00 TS 24.00 -72.70 314 313 _____________O -1 24.00 -72.70 TS 40 4 296
1859 NA NA 21:00:00 TS 24.10 -72.90 324 324 _____________P -1 24.10 -72.90 TS 42 4 299
1859 NA NA 1859-10-14 00:00:00 TS 24.20 -73.10 335 335 _____________O -1 24.20 -73.10 TS 45 4 299
1859 NA NA 03:00:00 TS 24.31 -73.31 346 346 _____________P -1 24.31 -73.31 TS 45 4 299
1859 NA NA 06:00:00 TS 24.40 -73.50 359 359 _____________O -1 24.40 -73.50 TS 45 3 292
1859 NA NA 09:00:00 TS 24.43 -73.64 360 360 _____________P -1 24.43 -73.64 TS 45 3 290
1859 NA NA 12:00:00 TS 24.50 -73.80 373 364 _____________O -1 24.50 -73.80 TS 45 5 306
1859 NA NA 15:00:00 TS 24.72 -74.08 364 337 _____________P -1 24.72 -74.08 TS 45 7 312
1859 NA NA 18:00:00 TS 25.00 -74.40 337 312 _____________O -1 25.00 -74.40 TS 45 8 313
1859 NA NA 21:00:00 TS 25.26 -74.72 315 293 _____________P -1 25.26 -74.72 TS 45 7 313
1859 NA NA 1859-10-15 00:00:00 TS 25.50 -75.00 293 284 _____________O -1 25.50 -75.00 TS 45 6 318
1859 NA NA 03:00:00 TS 25.71 -75.17 284 279 _____________P -1 25.71 -75.17 TS 50 5 326
1859 NA NA 06:00:00 TS 25.90 -75.30 283 279 _____________O -1 25.90 -75.30 TS 55 5 328
1859 NA NA 09:00:00 TS 26.10 -75.45 274 269 _____________P -1 26.10 -75.45 TS 55 5 326
1859 NA NA 12:00:00 TS 26.30 -75.60 275 272 _____________O -1 26.30 -75.60 TS 55 5 326
1859 NA NA 15:00:00 TS 26.51 -75.76 269 268 _____________P -1 26.51 -75.76 TS 55 5 326
1859 NA NA 18:00:00 TS 26.70 -75.90 275 275 _____________O -1 26.70 -75.90 TS 55 4 327
1859 NA NA 21:00:00 TS 26.84 -76.00 275 275 _____________P -1 26.84 -76.00 TS 55 4 330
1859 NA NA 1859-10-16 00:00:00 TS 27.00 -76.10 284 284 _____________O -1 27.00 -76.10 TS 55 5 332
1859 NA NA 03:00:00 TS 27.24 -76.24 295 295 _____________P -1 27.24 -76.24 TS 55 6 332
1859 NA NA 06:00:00 TS 27.50 -76.40 311 311 _____________O -1 27.50 -76.40 TS 55 5 329
1859 NA NA 09:00:00 TS 27.70 -76.55 322 322 _____________P -1 27.70 -76.55 TS 55 5 326
1859 NA NA 12:00:00 TS 27.90 -76.70 338 338 _____________O -1 27.90 -76.70 TS 55 5 329
1859 NA NA 15:00:00 TS 28.15 -76.86 342 337 _____________P -1 28.15 -76.86 TS 55 6 332
1859 NA NA 18:00:00 TS 28.40 -77.00 341 322 _____________O -1 28.40 -77.00 TS 55 5 328
1859 NA NA 21:00:00 TS 28.58 -77.17 322 322 _____________P -1 28.58 -77.17 TS 55 4 336
1859 NA NA 1859-10-17 00:00:00 TS 28.80 -77.20 323 323 _____________O -1 28.80 -77.20 TS 55 6 19
1859 NA NA 03:00:00 TS 29.12 -76.96 347 347 _____________P -1 29.12 -76.96 TS 55 9 37
1859 NA NA 06:00:00 TS 29.50 -76.60 394 394 _____________O -1 29.50 -76.60 TS 55 10 36
1859 NA NA 09:00:00 TS 29.90 -76.30 436 436 _____________P -1 29.90 -76.30 TS 55 10 33
1859 NA NA 12:00:00 TS 30.30 -76.00 440 422 _____________O -1 30.30 -76.00 TS 55 9 34
1859 NA NA 15:00:00 TS 30.66 -75.70 417 404 _____________P -1 30.66 -75.70 TS 52 9 36
1859 NA NA 18:00:00 TS 31.00 -75.40 404 390 _____________O -1 31.00 -75.40 TS 50 9 37
1859 NA NA 21:00:00 TS 31.35 -75.10 396 369 _____________P -1 31.35 -75.10 TS 45 9 36
1859 NA NA 1859-10-18 00:00:00 TS 31.70 -74.80 369 _____________O -1 31.70 -74.80 TS 40 9 36